Map

Track Data

SID SEASON NUMBER BASIN SUBBASIN NAME ISO_TIME NATURE LAT LON WMO_WIND WMO_PRES WMO_AGENCY TRACK_TYPE DIST2LAND LANDFALL IFLAG USA_AGENCY USA_ATCF_ID USA_LAT USA_LON USA_RECORD USA_STATUS USA_WIND USA_PRES USA_SSHS USA_R34_NE USA_R34_SE USA_R34_SW USA_R34_NW USA_R50_NE USA_R50_SE USA_R50_SW USA_R50_NW USA_R64_NE USA_R64_SE USA_R64_SW USA_R64_NW USA_POCI USA_ROCI USA_RMW USA_EYE TOKYO_LAT TOKYO_LON TOKYO_GRADE TOKYO_WIND TOKYO_PRES TOKYO_R50_DIR TOKYO_R50_LONG TOKYO_R50_SHORT TOKYO_R30_DIR TOKYO_R30_LONG TOKYO_R30_SHORT TOKYO_LAND CMA_LAT CMA_LON CMA_CAT CMA_WIND CMA_PRES HKO_LAT HKO_LON HKO_CAT HKO_WIND HKO_PRES NEWDELHI_LAT NEWDELHI_LON NEWDELHI_GRADE NEWDELHI_WIND NEWDELHI_PRES NEWDELHI_CI NEWDELHI_DP NEWDELHI_POCI REUNION_LAT REUNION_LON REUNION_TYPE REUNION_WIND REUNION_PRES REUNION_TNUM REUNION_CI REUNION_RMW REUNION_R34_NE REUNION_R34_SE REUNION_R34_SW REUNION_R34_NW REUNION_R50_NE REUNION_R50_SE REUNION_R50_SW REUNION_R50_NW REUNION_R64_NE REUNION_R64_SE REUNION_R64_SW REUNION_R64_NW BOM_LAT BOM_LON BOM_TYPE BOM_WIND BOM_PRES BOM_TNUM BOM_CI BOM_RMW BOM_R34_NE BOM_R34_SE BOM_R34_SW BOM_R34_NW BOM_R50_NE BOM_R50_SE BOM_R50_SW BOM_R50_NW BOM_R64_NE BOM_R64_SE BOM_R64_SW BOM_R64_NW BOM_ROCI BOM_POCI BOM_EYE BOM_POS_METHOD BOM_PRES_METHOD NADI_LAT NADI_LON NADI_CAT NADI_WIND NADI_PRES WELLINGTON_LAT WELLINGTON_LON WELLINGTON_WIND WELLINGTON_PRES DS824_LAT DS824_LON DS824_STAGE DS824_WIND DS824_PRES TD9636_LAT TD9636_LON TD9636_STAGE TD9636_WIND TD9636_PRES TD9635_LAT TD9635_LON TD9635_WIND TD9635_PRES TD9635_ROCI NEUMANN_LAT NEUMANN_LON NEUMANN_CLASS NEUMANN_WIND NEUMANN_PRES MLC_LAT MLC_LON MLC_CLASS MLC_WIND MLC_PRES USA_GUST BOM_GUST BOM_GUST_PER REUNION_GUST REUNION_GUST_PER USA_SEAHGT USA_SEARAD_NE USA_SEARAD_SE USA_SEARAD_SW USA_SEARAD_NW STORM_SPEED STORM_DIR
1995020S20038 1995 3 SI MM FODAH 1995-01-19 12:00:00 TS -20.0000 38.0000 main 216 204 O___________O_ jtwc_sh SH091995 -20.0000 38.0000 15 -1 -20.0000 38.0000 TC 15 5 2
1995020S20038 1995 3 SI MM FODAH 1995-01-19 15:00:00 TS -19.7500 38.0000 main 199 185 P___________P_ SH091995 -19.7500 38.0000 15 -1 -19.7500 38.0000 TC 15 5 2
1995020S20038 1995 3 SI MM FODAH 1995-01-19 18:00:00 TS -19.5000 38.0000 main 185 168 O___________O_ jtwc_sh SH091995 -19.5000 38.0000 15 -1 -19.5000 38.0000 TC 15 5 2
1995020S20038 1995 3 SI MM FODAH 1995-01-19 21:00:00 TS -19.2500 38.0000 main 161 145 P___________P_ SH091995 -19.2500 38.0000 15 -1 -19.2500 38.0000 TC 15 5 2
1995020S20038 1995 3 SI MM FODAH 1995-01-20 00:00:00 TS -19.0000 38.0000 main 145 131 O___________O_ jtwc_sh SH091995 -19.0000 38.0000 15 -1 -19.0000 38.0000 TC 15 5 2
1995020S20038 1995 3 SI MM FODAH 1995-01-20 03:00:00 TS -18.7500 38.0000 main 125 114 P___________P_ SH091995 -18.7500 38.0000 15 -1 -18.7500 38.0000 TC 15 5 2
1995020S20038 1995 3 SI MM FODAH 1995-01-20 06:00:00 TS -18.5000 38.0000 main 114 99 O___________O_ jtwc_sh SH091995 -18.5000 38.0000 15 -1 -18.5000 38.0000 TC 15 5 357
1995020S20038 1995 3 SI MM FODAH 1995-01-20 09:00:00 TS -18.2425 37.9925 main 89 70 P___________P_ SH091995 -18.2425 37.9925 15 -1 -18.2425 37.9925 TC 15 5 2
1995020S20038 1995 3 SI MM FODAH 1995-01-20 12:00:00 TS -18.0000 38.0000 main 70 49 O___________O_ jtwc_sh SH091995 -18.0000 38.0000 15 -1 -18.0000 38.0000 TC 15 5 4
1995020S20038 1995 3 SI MM FODAH 1995-01-20 15:00:00 TS -17.7925 38.0350 main 49 33 P___________P_ SH091995 -17.7925 38.0350 15 -1 -17.7925 38.0350 TC 15 4 13
1995020S20038 1995 3 SI MM FODAH 1995-01-20 18:00:00 TS -17.6000 38.1000 main 33 15 O___________O_ jtwc_sh SH091995 -17.6000 38.1000 15 -1 -17.6000 38.1000 TC 15 4 19
1995020S20038 1995 3 SI MM FODAH 1995-01-20 21:00:00 TS -17.3925 38.1850 main 15 0 P___________P_ SH091995 -17.3925 38.1850 15 -1 -17.3925 38.1850 TC 15 4 25
1995020S20038 1995 3 SI MM FODAH 1995-01-21 00:00:00 TS -17.2000 38.3000 main 0 0 O___________O_ jtwc_sh SH091995 -17.2000 38.3000 15 -1 -17.2000 38.3000 TC 15 4 33
1995020S20038 1995 3 SI MM FODAH 1995-01-21 03:00:00 TS -17.0200 38.4350 main 0 0 P___________P_ SH091995 -17.0200 38.4350 15 -1 -17.0200 38.4350 TC 15 4 44
1995020S20038 1995 3 SI MM FODAH 1995-01-21 06:00:00 TS -16.9000 38.6000 main 0 0 O___________O_ jtwc_sh SH091995 -16.9000 38.6000 15 -1 -16.9000 38.6000 TC 15 4 67
1995020S20038 1995 3 SI MM FODAH 1995-01-21 09:00:00 TS -16.8775 38.7924 main 0 0 P___________P_ SH091995 -16.8775 38.7924 15 -1 -16.8775 38.7924 TC 15 4 90
1995020S20038 1995 3 SI MM FODAH 1995-01-21 12:00:00 TS -16.9000 39.0000 main 0 0 O___________O_ jtwc_sh SH091995 -16.9000 39.0000 15 -1 -16.9000 39.0000 TC 15 4 90
1995020S20038 1995 3 SI MM FODAH 1995-01-21 15:00:00 TS -16.8775 39.2001 main 10 10 P___________P_ SH091995 -16.8775 39.2001 15 -1 -16.8775 39.2001 TC 15 4 90
1995020S20038 1995 3 SI MM FODAH 1995-01-21 18:00:00 TS -16.9000 39.4000 main 15 15 O___________O_ jtwc_sh SH091995 -16.9000 39.4000 15 -1 -16.9000 39.4000 TC 15 4 109
1995020S20038 1995 3 SI MM FODAH 1995-01-21 21:00:00 TS -17.0125 39.6150 main 38 38 P___________P_ SH091995 -17.0125 39.6150 17 -1 -17.0125 39.6150 TC 17 5 128
1995020S20038 1995 3 SI MM FODAH 1995-01-22 00:00:00 TS -17.2000 39.8000 main 69 69 O___________O_ jtwc_sh SH091995 -17.2000 39.8000 20 -1 -17.2000 39.8000 TC 20 5 146
1995020S20038 1995 3 SI MM FODAH 1995-01-22 03:00:00 TS -17.4350 39.9150 main 92 92 P___________P_ SH091995 -17.4350 39.9150 20 -1 -17.4350 39.9150 TC 20 5 159
1995020S20038 1995 3 SI MM FODAH 1995-01-22 06:00:00 TS -17.7000 40.0000 main 123 123 O___________O_ jtwc_sh SH091995 -17.7000 40.0000 20 -1 -17.7000 40.0000 TC 20 5 161
1995020S20038 1995 3 SI MM FODAH 1995-01-22 09:00:00 TS -17.9500 40.1000 main 146 146 P___________P_ SH091995 -17.9500 40.1000 20 -1 -17.9500 40.1000 TC 20 5 136
1995020S20038 1995 3 SI MM FODAH 1995-01-22 12:00:00 TS -18.0556 40.3556 25 1000 reunion main 184 184 O____O______O_ jtwc_sh SH091995 -18.2000 40.2000 20 -1 -16.9000 41.6000 2 25 1000 2.00000 2.00000 -18.2000 40.2000 TC 20 5 123
1995020S20038 1995 3 SI MM FODAH 1995-01-22 15:00:00 TS -18.2165 40.5400 main 200 200 P____P______P_ SH091995 -18.4575 40.3000 20 -1 -17.2525 41.5001 2 25 1000 -18.4575 40.3000 TC 20 5 139
1995020S20038 1995 3 SI MM FODAH 1995-01-22 18:00:00 TS -18.4000 40.6727 25 1000 reunion main 230 230 O____O______O_ jtwc_sh SH091995 -18.7000 40.4000 20 -1 -17.6000 41.4000 2 25 1000 2.00000 2.00000 -18.7000 40.4000 TC 20 4 149
1995020S20038 1995 3 SI MM FODAH 1995-01-22 21:00:00 TS -18.5808 40.7717 main 253 253 P____P______P_ SH091995 -18.9000 40.5075 22 -1 -17.9425 41.2999 2 25 1000 -18.9000 40.5075 TC 22 5 165
1995020S20038 1995 3 SI MM FODAH 1995-01-23 00:00:00 TS -18.8333 40.8000 25 1000 reunion main 270 270 O____O______O_ jtwc_sh SH091995 -19.1000 40.6000 25 -1 -18.3000 41.2000 2 25 1000 2.00000 2.00000 -19.1000 40.6000 TC 25 6 0
1995020S20038 1995 3 SI MM FODAH 1995-01-23 03:00:00 TS -19.1333 40.8001 main 295 295 P____P______P_ SH091995 -19.3425 40.6575 25 -1 -18.7150 41.0851 2 25 1000 -19.3425 40.6575 TC 25 6 179
1995020S20038 1995 3 SI MM FODAH 1995-01-23 06:00:00 TS -19.4333 40.8000 25 1000 reunion main 323 323 O____O______O_ jtwc_sh SH091995 -19.6000 40.7000 25 -1 -19.1000 41.0000 2 25 1000 2.00000 2.00000 -19.6000 40.7000 TC 25 5 0
1995020S20038 1995 3 SI MM FODAH 1995-01-23 09:00:00 TS -19.6758 40.8258 main 339 318 P____P______P_ SH091995 -19.8425 40.7500 27 -1 -19.3425 40.9775 2 27 997 -19.8425 40.7500 TC 27 5 172
1995020S20038 1995 3 SI MM FODAH 1995-01-23 12:00:00 TS -19.9333 40.8667 30 995 reunion main 318 301 O____O______O_ jtwc_sh SH091995 -20.1000 40.8000 30 -1 -19.6000 41.0000 2 30 995 2.50000 2.50000 -20.1000 40.8000 TC 30 6 172
1995020S20038 1995 3 SI MM FODAH 1995-01-23 15:00:00 TS -20.2658 40.9216 main 296 274 P____P______P_ SH091995 -20.3850 40.8575 32 -1 -20.0275 41.0499 2 31 994 -20.3850 40.8575 TC 32 7 172
1995020S20038 1995 3 SI MM FODAH 1995-01-23 18:00:00 TS -20.6333 40.9667 32 993 reunion main 274 262 O____O______O_ jtwc_sh SH091995 -20.7000 40.9000 35 0 -20.5000 41.1000 2 32 993 2.50000 2.50000 -20.7000 40.9000 TC 35 7 176
1995020S20038 1995 3 SI MM FODAH 1995-01-23 21:00:00 TS -20.9900 40.9817 main 262 248 P____P______P_ SH091995 -21.0350 40.9075 37 0 -20.9000 41.1299 2 36 989 -21.0350 40.9075 TC 37 7 178
1995020S20038 1995 3 SI MM FODAH 1995-01-24 00:00:00 TS -21.3667 40.9667 40 985 reunion main 244 240 O____O______O_ jtwc_sh SH091995 -21.4000 40.9000 40 0 -21.3000 41.1000 3 40 985 3.00000 3.00000 -21.4000 40.9000 TC 40 8 185
1995020S20038 1995 3 SI MM FODAH 1995-01-24 03:00:00 TS -21.7759 40.9118 main 241 236 P____P______P_ SH091995 -21.7925 40.8926 42 0 -21.7426 40.9503 3 42 982 -21.7925 40.8926 TC 42 8 187
1995020S20038 1995 3 SI MM FODAH 1995-01-24 06:00:00 TS -22.2000 40.8667 45 980 reunion main 236 236 O____O______O_ jtwc_sh SH091995 -22.2000 40.9000 45 0 -22.2000 40.8000 3 45 980 3.50000 3.50000 -22.2000 40.9000 TC 45 8 181
1995020S20038 1995 3 SI MM FODAH 1995-01-24 09:00:00 TS -22.6142 40.8924 main 238 238 P____P______P_ SH091995 -22.5925 40.9499 45 0 -22.6575 40.7773 3 47 977 -22.5925 40.9499 TC 45 8 176
1995020S20038 1995 3 SI MM FODAH 1995-01-24 12:00:00 TS -23.0333 40.9333 50 975 reunion main 248 248 O____O______O_ jtwc_sh SH091995 -23.0000 41.0000 45 0 -23.1000 40.8000 3 50 975 4.00000 4.00000 -23.0000 41.0000 TC 45 9 178
1995020S20038 1995 3 SI MM FODAH 1995-01-24 15:00:00 TS -23.4592 40.9334 main 267 267 P____P______P_ SH091995 -23.4425 41.0001 45 0 -23.4925 40.8000 3 52 972 -23.4425 41.0001 TC 45 9 179
1995020S20038 1995 3 SI MM FODAH 1995-01-24 18:00:00 TS -23.9000 40.9333 55 970 reunion main 275 272 O____O______O_ jtwc_sh SH091995 -23.9000 41.0000 45 0 -23.9000 40.8000 3 55 970 4.00000 4.00000 -23.9000 41.0000 TC 45 9 179
1995020S20038 1995 3 SI MM FODAH 1995-01-24 21:00:00 TS -24.3542 40.9592 main 275 275 P____P______P_ SH091995 -24.3425 41.0351 45 0 -24.3775 40.8074 3 55 970 -24.3425 41.0351 TC 45 9 177
1995020S20038 1995 3 SI MM FODAH 1995-01-25 00:00:00 TS -24.8333 41.0000 55 970 reunion main 283 283 O____O______O_ jtwc_sh SH091995 -24.8000 41.1000 45 0 -24.9000 40.8000 3 55 970 4.00000 4.00000 -24.8000 41.1000 TC 45 10 175
1995020S20038 1995 3 SI MM FODAH 1995-01-25 03:00:00 TS -25.3375 41.0525 main 283 283 P____P______P_ SH091995 -25.2775 41.2073 45 0 -25.4575 40.7428 3 52 972 -25.2775 41.2073 TC 45 10 175
1995020S20038 1995 3 SI MM FODAH 1995-01-25 06:00:00 TS -25.8667 41.1000 50 975 reunion main 307 307 O____O______O_ jtwc_sh SH091995 -25.8000 41.3000 45 0 -26.0000 40.7000 3 50 975 3.50000 4.00000 -25.8000 41.3000 TC 45 11 177
1995020S20038 1995 3 SI MM FODAH 1995-01-25 09:00:00 TS -26.4017 41.1168 main 329 329 P____P______P_ SH091995 -26.3850 41.3152 45 0 -26.4350 40.7201 3 50 975 -26.3850 41.3152 TC 45 11 178
1995020S20038 1995 3 SI MM FODAH 1995-01-25 12:00:00 TS -26.9667 41.1333 50 975 reunion main 365 365 O____O______O_ jtwc_sh SH091995 -27.0000 41.3000 45 0 -26.9000 40.8000 3 50 975 3.50000 4.00000 -27.0000 41.3000 TC 45 12 177
1995020S20038 1995 3 SI MM FODAH 1995-01-25 15:00:00 TS -27.5658 41.1783 main 402 402 P____P______P_ SH091995 -27.5925 41.3000 45 0 -27.5125 40.9349 3 47 977 -27.5925 41.3000 TC 45 12 176
1995020S20038 1995 3 SI MM FODAH 1995-01-25 18:00:00 TS -28.2000 41.2333 45 980 reunion main 452 452 O____O______O_ jtwc_sh SH091995 -28.2000 41.3000 45 0 -28.2000 41.1000 3 45 980 3.00000 3.50000 -28.2000 41.3000 TC 45 13 176
1995020S20038 1995 3 SI MM FODAH 1995-01-25 21:00:00 TS -28.8667 41.2809 main 505 505 P____P______P_ SH091995 -28.8500 41.2853 45 0 -28.9000 41.2722 3 45 982 -28.8500 41.2853 TC 45 13 176
1995020S20038 1995 3 SI MM FODAH 1995-01-26 00:00:00 TS -29.5333 41.3333 45 985 reunion main 559 559 O____O______O_ jtwc_sh SH091995 -29.5000 41.3000 45 0 -29.6000 41.4000 3 45 985 2.50000 3.50000 -29.5000 41.3000 TC 45 13 176
1995020S20038 1995 3 SI MM FODAH 1995-01-26 03:00:00 TS -30.1649 41.3730 main 621 621 P____P______P_ SH091995 -30.1149 41.3554 42 0 -30.2649 41.4082 3 42 987 -30.1149 41.3554 TC 42 12 175
1995020S20038 1995 3 SI MM FODAH 1995-01-26 06:00:00 MX -30.7667 41.4667 40 990 reunion main 676 676 O____O______O_ jtwc_sh SH091995 -30.7000 41.5000 40 0 -30.9000 41.4000 5 40 990 9.90000 -30.7000 41.5000 TC 40 12 170
1995020S20038 1995 3 SI MM FODAH 1995-01-26 09:00:00 MX -31.3704 41.6204 main 733 733 P____P______P_ SH091995 -31.2872 41.7326 37 0 -31.5368 41.3961 5 -31.2872 41.7326 TC 37 12 161
1995020S20038 1995 3 SI MM FODAH 1995-01-26 12:00:00 MX -31.9000 41.9333 reunion main 773 769 O____O______O_ jtwc_sh SH091995 -31.8000 42.1000 35 0 -32.1000 41.6000 5 9.90000 -31.8000 42.1000 TC 35 12 143
1995020S20038 1995 3 SI MM FODAH 1995-01-26 15:00:00 MX -32.3243 42.4655 main 792 792 P____P______P_ SH091995 -32.2101 42.6048 32 -1 -32.5527 42.1869 5 -32.2101 42.6048 TC 32 13 126
1995020S20038 1995 3 SI MM FODAH 1995-01-26 18:00:00 MX -32.6333 43.1333 reunion main 807 805 O____O______O_ jtwc_sh SH091995 -32.5000 43.2000 30 -1 -32.9000 43.0000 5 9.90000 -32.5000 43.2000 TC 30 12 115
1995020S20038 1995 3 SI MM FODAH 1995-01-26 21:00:00 MX -32.8488 43.7949 main 815 815 P____P______P_ SH091995 -32.6873 43.7931 30 -1 -33.1717 43.7987 5 -32.6873 43.7931 TC 30 12 109
1995020S20038 1995 3 SI MM FODAH 1995-01-27 00:00:00 MX -33.0400 44.5200 reunion main 828 828 O____O______O_ jtwc_sh SH091995 -32.8000 44.4000 30 -1 -33.4000 44.7000 5 9.90000 -32.8000 44.4000 TC 30 14 107
1995020S20038 1995 3 SI MM FODAH 1995-01-27 03:00:00 MX -33.2557 45.3361 main 859 859 P____P______P_ SH091995 -32.9005 45.0021 27 -1 -33.6109 45.6702 5 -32.9005 45.0021 TC 27 17 110
1995020S20038 1995 3 SI MM FODAH 1995-01-27 06:00:00 MX -33.6000 46.4000 reunion main 897 897 O____O______O_ jtwc_sh SH091995 -33.0000 45.6000 25 -1 -33.9000 46.8000 5 9.90000 -33.0000 45.6000 TC 25 26 114
1995020S20038 1995 3 SI MM FODAH 1995-01-27 09:00:00 ET -34.2802 48.1512 main 1004 1004 _____P________ SH091995 -1 -34.2802 48.1512 5 TC 29 116
1995020S20038 1995 3 SI MM FODAH 1995-01-27 12:00:00 ET -34.9000 49.6000 reunion main 1109 1109 _____O________ -1 -34.9000 49.6000 5 9.90000 27 125
1995020S20038 1995 3 SI MM FODAH 1995-01-27 15:00:00 ET -35.8687 50.8845 main 1256 1256 _____P________ -1 -35.8687 50.8845 5 31 133
1995020S20038 1995 3 SI MM FODAH 1995-01-27 18:00:00 ET -37.0000 52.4000 reunion main 1419 1419 _____O________ -1 -37.0000 52.4000 5 9.90000 36 128
1995020S20038 1995 3 SI MM FODAH 1995-01-27 21:00:00 ET -38.0507 54.4263 main 1606 1466 _____P________ -1 -38.0507 54.4263 5 40 120
1995020S20038 1995 3 SI MM FODAH 1995-01-28 00:00:00 ET -39.0000 56.8000 reunion main 1452 _____O________ -1 -39.0000 56.8000 5 9.90000 42 117

About IBTrACS Database

This database is a web-friendly format of International Best Track Archive for Climate Stewardship (IBTrACS), a global best track data archive curated by NOAA dating back to 1842.

Updated: 2021-12-03